Time;durP1;ratioP1;P1;durP2;ratioP2;P2;SDS_P1;SDS_P2;PMS_P1;PMS_P2;Temp;Humidity;BMP_temperature;BMP_pressure;BME280_temperature;BME280_humidity;BME280_pressure;Samples;Min_cycle;Max_cycle;Signal;HPM_P1;HPM_P2
2022/12/20 07:17:47;;;;;;;;;;;;;;;;;;957458;30;20109;31
2022/12/20 07:19:28;;;;;;;;;;;;;;;;;;938445;27;21304;31
2022/12/20 07:20:00;;;;;;;;;;;;;;;;;;938347;27;19907;31
2022/12/20 07:25:35;;;;;;;;;;;;;;;;;;938520;27;20177;31
2022/12/20 07:44:26;;;;;;;;;;;;;;;;;;946420;27;19945;-80
2022/12/20 07:48:20;;;;;;;;;;;;;;;;;;946732;27;19903;-79
2022/12/20 07:48:50;;;;;;;;;;;;;;;;;;946035;27;19903;-78
2022/12/20 07:49:24;;;;;;;;;;;;;;;;;;944168;27;19907;-78
2022/12/20 07:49:54;;;;;;;;;;;;;;;;;;944682;27;19903;-79
2022/12/20 07:50:25;;;;;;;;;;;;;;;;;;945654;27;19903;-79
2022/12/20 07:51:02;;;;;;;;;;;;;;;;;;945274;27;19935;-79
2022/12/20 07:51:35;;;;;;;;;;;;;;;;;;945679;27;19914;-79
2022/12/20 07:52:09;;;;;;;;;;;;;;;;;;945651;27;19915;-79
2022/12/20 07:52:42;;;;;;;;;;;;;;;;;;946077;27;19914;-79
2022/12/20 07:53:16;;;;;;;;;;;;;;;;;;945365;27;19998;-79
2022/12/20 07:53:49;;;;;;;;;;;;;;;;;;945670;27;21019;-78
2022/12/20 07:54:24;;;;;;;;;;;;;;;;;;946097;27;19908;-79
2022/12/20 07:54:58;;;;;;;;;;;;;;;;;;945105;27;19954;-79
2022/12/20 07:55:30;;;;;;;;;;;;;;;;;;946117;27;19940;-80
2022/12/20 07:56:04;;;;;;;;;;;;;;;;;;946591;27;19936;-80
2022/12/20 07:58:58;;;;;;;;;;;;;;;;;;939295;27;19901;31
2022/12/20 07:59:34;;;;;;;;;;;;;;;;;;938458;27;19907;31
2022/12/20 08:00:13;;;;;;;;;;;;;;;;;;938628;27;19907;31
2022/12/20 08:01:20;;;;;;;;;;;;;;;;;;947198;27;20433;-80
2022/12/20 08:02:29;;;;;;;;;;;;;;;;;;947138;27;19903;-81
2022/12/20 08:03:41;;;;;;;;;;;;;;;;;;938221;27;20127;31
2022/12/20 08:04:15;;;;;;;;;;;;;;;;;;938344;27;19908;31
2022/12/20 08:08:42;;;;;;;;;;;;;;;;;;938188;27;20135;31
2022/12/20 08:09:16;;;;;;;;;;;;;;;;;;938207;27;21064;31
2022/12/20 08:12:09;;;;;;;;;;;;;;;;;;938332;27;19907;31
2022/12/20 08:14:59;;;;;;;;;;;;;;;;;;938220;27;21284;31
2022/12/20 08:15:36;;;;;;;;;;;;;;;;;;938267;27;19907;31
2022/12/20 08:20:01;;;;;;;;;;;;;;;;;;940694;27;19908;-78
2022/12/20 08:20:32;;;;;;;;;;;;;;;;;;946752;27;19915;-77
2022/12/20 08:21:05;;;;;;;;;;;;;;;;;;947161;27;20333;-77
2022/12/20 08:23:20;;;;;;;;;;;;;;;;;;947108;27;19922;-80
2022/12/20 08:23:50;;;;;;;;;;;;;;;;;;947007;27;19927;-80
2022/12/20 08:26:05;;;;;;;;;;;;;;;;;;946925;27;20149;-80
2022/12/20 08:27:08;;;;;;;;;;;;;;;;;;947153;27;19895;-80
2022/12/20 08:27:41;;;;;;;;;;;;;;;;;;946986;27;19895;-80
2022/12/20 08:28:12;;;;;;;;;;;;;;;;;;946963;27;19903;-80
2022/12/20 08:29:18;;;;;;;;;;;;;;;;;;944709;27;20322;-80
2022/12/20 08:29:49;;;;;;;;;;;;;;;;;;944740;27;19903;-80
2022/12/20 08:30:20;;;;;;;;;;;;;;;;;;944874;27;20342;-80
2022/12/20 08:31:01;;;;;;;;;;;;;;;;;;944758;27;19907;-81
2022/12/20 08:32:09;;;;;;;;;;;;;;;;;;944931;27;19903;-78
2022/12/20 08:33:50;;;;;;;;;;;;;;;;;;944919;27;20229;-78
2022/12/20 08:34:21;;;;;;;;;;;;;;;;;;944437;27;19895;-80
2022/12/20 08:35:27;;;;;;;;;;;;;;;;;;944859;27;20358;-80
2022/12/20 08:39:53;;;;;;;;;;;;;;;;;;944885;27;19895;-80
2022/12/20 08:40:24;;;;;;;;;;;;;;;;;;944694;27;19896;-80
2022/12/20 08:40:55;;;;;;;;;;;;;;;;;;944661;27;19903;-81
2022/12/20 08:41:28;;;;;;;;;;;;;;;;;;944759;27;19914;-79
2022/12/20 08:41:58;;;;;;;;;;;;;;;;;;944605;27;19896;-80
2022/12/20 08:42:32;;;;;;;;;;;;;;;;;;944585;27;19895;-80
2022/12/20 08:43:02;;;;;;;;;;;;;;;;;;944329;27;19916;-81
2022/12/20 08:43:36;;;;;;;;;;;;;;;;;;944831;27;19899;-80
2022/12/20 08:44:07;;;;;;;;;;;;;;;;;;944574;27;19915;-80
2022/12/20 08:44:40;;;;;;;;;;;;;;;;;;944656;27;19922;-79
2022/12/20 08:45:11;;;;;;;;;;;;;;;;;;944529;27;19903;-79
2022/12/20 08:45:44;;;;;;;;;;;;;;;;;;944213;27;19904;-80
2022/12/20 08:46:18;;;;;;;;;;;;;;;;;;944624;27;19923;-79
2022/12/20 08:46:52;;;;;;;;;;;;;;;;;;944624;27;19914;-80
2022/12/20 08:47:23;;;;;;;;;;;;;;;;;;944296;27;19914;-77
2022/12/20 08:47:56;;;;;;;;;;;;;;;;;;943209;27;19907;-76
2022/12/20 08:48:27;;;;;;;;;;;;;;;;;;943290;27;20155;-78
2022/12/20 09:01:15;;;;;;;;;;;;;;;;;;935865;27;20210;31
2022/12/20 09:13:11;;;;;;;;;;;;;;;;;;945319;31;19985;-76
2022/12/20 09:13:43;;;;;;;;;;;;;;;;;;947245;27;19895;-79
2022/12/20 09:14:16;;;;;;;;;;;;;;;;;;947101;27;19907;-78
2022/12/20 09:14:47;;;;;;;;;;;;;;;;;;945391;27;19934;-77
2022/12/20 09:15:17;;;;;;;;;;;;;;;;;;945606;27;20200;-76
2022/12/20 09:15:50;;;;;;;;;;;;;;;;;;945724;27;20314;-75
2022/12/20 09:16:22;;;;;;;;;;;;;;;;;;946326;27;19919;-76
2022/12/20 09:16:57;;;;;;;;;;;;;;;;;;946306;27;19919;-75
2022/12/20 09:17:27;;;;;;;;;;;;;;;;;;946194;27;19917;-77
2022/12/20 09:17:59;;;;;;;;;;;;;;;;;;946154;27;19918;-76
2022/12/20 09:18:32;;;;;;;;;;;;;;;;;;944993;27;19921;-76
2022/12/20 09:19:03;;;;;;;;;;;;;;;;;;944196;27;20232;-76
2022/12/20 09:19:36;;;;;;;;;;;;;;;;;;945763;27;19907;-76
2022/12/20 09:20:07;;;;;;;;;;;;;;;;;;946378;27;19922;-76
2022/12/20 09:20:41;;;;;;;;;;;;;;;;;;946034;27;20156;-76
2022/12/20 09:21:14;;;;;;;;;;;;;;;;;;946507;27;19915;-78
2022/12/20 09:21:45;;;;;;;;;;;;;;;;;;946047;27;19908;-76
2022/12/20 09:22:18;;;;;;;;;;;;;;;;;;946287;27;20114;-76
2022/12/20 09:23:21;;;;;;;;;;;;;;;;;;946855;27;19918;-77
2022/12/20 09:23:55;;;;;;;;;;;;;;;;;;946896;27;19906;-76
2022/12/20 09:24:26;;;;;;;;;;;;;;;;;;946280;27;19914;-76
2022/12/20 09:24:59;;;;;;;;;;;;;;;;;;946221;27;20236;-76
2022/12/20 09:25:29;;;;;;;;;;;;;;;;;;946506;27;19918;-76
2022/12/20 09:26:01;;;;;;;;;;;;;;;;;;945820;27;19912;-76
2022/12/20 09:26:34;;;;;;;;;;;;;;;;;;945364;27;20206;-76
2022/12/20 09:27:05;;;;;;;;;;;;;;;;;;945509;27;19918;-77
2022/12/20 09:27:36;;;;;;;;;;;;;;;;;;946543;27;19915;-77
2022/12/20 09:28:11;;;;;;;;;;;;;;;;;;946064;27;19915;-77
2022/12/20 09:28:43;;;;;;;;;;;;;;;;;;946467;27;19914;-76
2022/12/20 09:29:16;;;;;;;;;;;;;;;;;;945947;27;19966;-76
2022/12/20 09:29:47;;;;;;;;;;;;;;;;;;945796;27;19907;-76
2022/12/20 09:30:20;;;;;;;;;;;;;;;;;;945936;27;20209;-76
2022/12/20 09:30:51;;;;;;;;;;;;;;;;;;945841;27;19935;-77
2022/12/20 09:31:25;;;;;;;;;;;;;;;;;;944442;27;19950;-77
2022/12/20 09:31:56;;;;;;;;;;;;;;;;;;944071;27;19917;-77
2022/12/20 09:32:27;;;;;;;;;;;;;;;;;;943731;27;20247;-77
2022/12/20 09:33:00;;;;;;;;;;;;;;;;;;943960;27;19922;-76
2022/12/20 09:33:31;;;;;;;;;;;;;;;;;;943695;27;19918;-76
2022/12/20 09:34:05;;;;;;;;;;;;;;;;;;943671;27;19957;-76
2022/12/20 09:34:35;;;;;;;;;;;;;;;;;;943692;27;19911;-76
2022/12/20 09:35:09;;;;;;;;;;;;;;;;;;943597;27;20286;-76
2022/12/20 09:35:43;;;;;;;;;;;;;;;;;;943713;27;19908;-76
2022/12/20 09:36:17;;;;;;;;;;;;;;;;;;943457;27;19918;-77
2022/12/20 09:36:48;;;;;;;;;;;;;;;;;;943279;27;20341;-76
2022/12/20 09:37:21;;;;;;;;;;;;;;;;;;942713;27;19918;-77
2022/12/20 09:37:52;;;;;;;;;;;;;;;;;;945183;27;20176;-76
2022/12/20 09:38:25;;;;;;;;;;;;;;;;;;943115;27;19918;-76
2022/12/20 09:38:56;;;;;;;;;;;;;;;;;;945988;27;20255;-79
2022/12/20 09:39:30;;;;;;;;;;;;;;;;;;946390;27;19903;-81
2022/12/20 09:40:00;;;;;;;;;;;;;;;;;;945606;27;20159;-78
2022/12/20 09:40:31;;;;;;;;;;;;;;;;;;945104;27;19918;-78
2022/12/20 09:41:40;;;;;;;;;;;;;;;;;;947135;27;19907;-77
2022/12/20 09:42:47;;;;;;;;;;;;;;;;;;946742;27;20283;-79
2022/12/20 09:43:21;;;;;;;;;;;;;;;;;;943836;27;19908;-77
2022/12/20 09:43:52;;;;;;;;;;;;;;;;;;946158;27;19933;-78
2022/12/20 09:44:27;;;;;;;;;;;;;;;;;;946621;27;19907;-80
2022/12/20 09:45:34;;;;;;;;;;;;;;;;;;938196;27;19922;-79
2022/12/20 09:46:07;;;;;;;;;;;;;;;;;;943567;27;20618;-79
2022/12/20 09:46:39;;;;;;;;;;;;;;;;;;943114;27;19919;-79
2022/12/20 09:47:16;;;;;;;;;;;;;;;;;;944331;27;19945;-76
2022/12/20 09:47:46;;;;;;;;;;;;;;;;;;944864;27;19907;-78
2022/12/20 09:48:19;;;;;;;;;;;;;;;;;;946462;27;20262;-78
2022/12/20 09:48:52;;;;;;;;;;;;;;;;;;946262;27;20261;-79
2022/12/20 09:49:56;;;;;;;;;;;;;;;;;;946664;27;20366;-78
2022/12/20 09:50:38;;;;;;;;;;;;;;;;;;946589;27;19952;-77
2022/12/20 09:51:15;;;;;;;;;;;;;;;;;;947004;27;19927;-79
2022/12/20 09:51:53;;;;;;;;;;;;;;;;;;947145;27;19914;-78
2022/12/20 09:52:29;;;;;;;;;;;;;;;;;;947068;27;19946;-78
2022/12/20 09:53:08;;;;;;;;;;;;;;;;;;947161;27;19907;-79
2022/12/20 09:54:19;;;;;;;;;;;;;;;;;;947332;27;20318;-77
2022/12/20 09:55:30;;;;;;;;;;;;;;;;;;947368;27;19899;-78
2022/12/20 09:56:07;;;;;;;;;;;;;;;;;;947260;27;19946;-79
2022/12/20 09:57:17;;;;;;;;;;;;;;;;;;947375;27;20391;-81
2022/12/20 09:57:54;;;;;;;;;;;;;;;;;;947349;27;19940;-79
2022/12/20 09:58:37;;;;;;;;;;;;;;;;;;947331;27;19942;-76
2022/12/20 09:59:10;;;;;;;;;;;;;;;;;;947289;27;20240;-78
2022/12/20 09:59:45;;;;;;;;;;;;;;;;;;947086;27;19931;-77
2022/12/20 10:00:16;;;;;;;;;;;;;;;;;;947157;27;19911;-76
2022/12/20 10:00:48;;;;;;;;;;;;;;;;;;947136;27;19900;-79
2022/12/20 10:01:23;;;;;;;;;;;;;;;;;;947256;27;19915;-78
2022/12/20 10:01:53;;;;;;;;;;;;;;;;;;947135;27;19908;-77
2022/12/20 10:02:25;;;;;;;;;;;;;;;;;;947348;27;19931;-77
2022/12/20 10:02:58;;;;;;;;;;;;;;;;;;947275;27;19942;-76
2022/12/20 10:04:01;;;;;;;;;;;;;;;;;;942736;27;19906;-76
2022/12/20 10:05:11;;;;;;;;;;;;;;;;;;947276;27;20410;-82
2022/12/20 10:05:46;;;;;;;;;;;;;;;;;;947138;27;19906;-77
2022/12/20 10:06:24;;;;;;;;;;;;;;;;;;947205;27;19941;-78
2022/12/20 10:07:04;;;;;;;;;;;;;;;;;;947347;27;19907;-77
2022/12/20 10:07:43;;;;;;;;;;;;;;;;;;947230;27;19950;-78
2022/12/20 10:08:19;;;;;;;;;;;;;;;;;;947311;27;20184;-81
2022/12/20 10:09:37;;;;;;;;;;;;;;;;;;947317;27;19899;-79
2022/12/20 10:10:19;;;;;;;;;;;;;;;;;;947261;27;19923;-77
2022/12/20 10:10:56;;;;;;;;;;;;;;;;;;943222;27;20235;-76
2022/12/20 10:11:43;;;;;;;;;;;;;;;;;;947298;27;19930;-76
2022/12/20 10:12:22;;;;;;;;;;;;;;;;;;946997;27;19942;-79
2022/12/20 10:13:01;;;;;;;;;;;;;;;;;;947235;27;19895;-79
2022/12/20 10:14:49;;;;;;;;;;;;;;;;;;946870;27;19908;-78
2022/12/20 10:15:20;;;;;;;;;;;;;;;;;;947356;27;19899;-77
2022/12/20 10:15:53;;;;;;;;;;;;;;;;;;947176;27;20279;-79
2022/12/20 10:16:34;;;;;;;;;;;;;;;;;;947220;27;19896;-77
2022/12/20 10:17:09;;;;;;;;;;;;;;;;;;947249;27;20248;-78
2022/12/20 10:18:22;;;;;;;;;;;;;;;;;;947303;27;19907;-79
2022/12/20 10:18:57;;;;;;;;;;;;;;;;;;946946;27;19900;-76
2022/12/20 10:20:10;;;;;;;;;;;;;;;;;;946684;27;20227;-78
2022/12/20 10:21:21;;;;;;;;;;;;;;;;;;947343;27;19903;-79
2022/12/20 10:21:55;;;;;;;;;;;;;;;;;;947087;27;19900;-77
2022/12/20 10:22:28;;;;;;;;;;;;;;;;;;947323;27;19906;-77
2022/12/20 10:23:04;;;;;;;;;;;;;;;;;;947292;27;19915;-76
2022/12/20 10:23:38;;;;;;;;;;;;;;;;;;947199;27;19927;-78
2022/12/20 10:24:14;;;;;;;;;;;;;;;;;;946041;27;19906;-76
2022/12/20 10:24:50;;;;;;;;;;;;;;;;;;944700;27;20282;-78
2022/12/20 10:25:25;;;;;;;;;;;;;;;;;;945057;27;19915;-77
2022/12/20 10:25:56;;;;;;;;;;;;;;;;;;945035;27;19900;-77
2022/12/20 10:28:03;;;;;;;;;;;;;;;;;;933948;27;19915;-76
2022/12/20 10:29:10;;;;;;;;;;;;;;;;;;945028;27;19903;-78
2022/12/20 10:29:44;;;;;;;;;;;;;;;;;;944736;27;19906;-78
2022/12/20 10:30:19;;;;;;;;;;;;;;;;;;944784;27;19907;-76
2022/12/20 10:30:50;;;;;;;;;;;;;;;;;;940198;27;19916;-76
2022/12/20 10:31:24;;;;;;;;;;;;;;;;;;944929;27;19900;-76
2022/12/20 10:31:57;;;;;;;;;;;;;;;;;;944991;27;20183;-78
2022/12/20 10:32:31;;;;;;;;;;;;;;;;;;944847;27;19906;-77
2022/12/20 10:33:02;;;;;;;;;;;;;;;;;;944756;27;19906;-77
2022/12/20 10:33:32;;;;;;;;;;;;;;;;;;944614;27;20621;-78
2022/12/20 10:34:06;;;;;;;;;;;;;;;;;;944922;27;19992;-78
2022/12/20 10:34:36;;;;;;;;;;;;;;;;;;944814;27;19949;-78
2022/12/20 10:35:23;;;;;;;;;;;;;;;;;;944753;27;19935;-77
2022/12/20 10:35:54;;;;;;;;;;;;;;;;;;945038;27;20288;-80
2022/12/20 10:36:28;;;;;;;;;;;;;;;;;;945011;27;19906;-77
2022/12/20 10:37:10;;;;;;;;;;;;;;;;;;945039;27;19900;-77
2022/12/20 10:37:57;;;;;;;;;;;;;;;;;;943492;27;19895;-76
2022/12/20 10:40:26;;;;;;;;;;;;;;;;;;944939;27;19907;-79
2022/12/20 10:41:01;;;;;;;;;;;;;;;;;;945024;27;19899;-77
2022/12/20 10:41:36;;;;;;;;;;;;;;;;;;945014;27;19906;-77
2022/12/20 10:42:20;;;;;;;;;;;;;;;;;;944977;27;20302;-78
2022/12/20 10:42:54;;;;;;;;;;;;;;;;;;944984;27;19919;-76
2022/12/20 10:43:25;;;;;;;;;;;;;;;;;;944916;27;19908;-77
2022/12/20 10:44:00;;;;;;;;;;;;;;;;;;944865;27;20203;-78
2022/12/20 10:45:09;;;;;;;;;;;;;;;;;;943269;27;19907;-76
2022/12/20 10:46:16;;;;;;;;;;;;;;;;;;945025;27;19896;-78
2022/12/20 10:47:23;;;;;;;;;;;;;;;;;;945061;27;19907;-80
2022/12/20 10:48:00;;;;;;;;;;;;;;;;;;944960;27;20267;-80
2022/12/20 10:49:21;;;;;;;;;;;;;;;;;;945021;27;19908;-78
2022/12/20 10:50:06;;;;;;;;;;;;;;;;;;945039;27;19916;-76
2022/12/20 10:50:39;;;;;;;;;;;;;;;;;;944997;27;19907;-77
2022/12/20 10:51:14;;;;;;;;;;;;;;;;;;944904;27;19916;-78
2022/12/20 10:51:53;;;;;;;;;;;;;;;;;;944913;27;19931;-78
2022/12/20 10:52:23;;;;;;;;;;;;;;;;;;944843;27;20243;-76
2022/12/20 10:53:15;;;;;;;;;;;;;;;;;;944880;27;19903;-80
2022/12/20 10:53:50;;;;;;;;;;;;;;;;;;944970;27;19915;-77
2022/12/20 10:54:25;;;;;;;;;;;;;;;;;;944912;27;19916;-78
2022/12/20 10:54:56;;;;;;;;;;;;;;;;;;944930;27;19902;-78
2022/12/20 10:57:03;;;;;;;;;;;;;;;;;;942471;27;19931;-76
2022/12/20 10:57:34;;;;;;;;;;;;;;;;;;944844;27;19918;-77
2022/12/20 10:58:06;;;;;;;;;;;;;;;;;;944896;27;19907;-77
2022/12/20 10:58:39;;;;;;;;;;;;;;;;;;945001;27;19899;-77
2022/12/20 10:59:24;;;;;;;;;;;;;;;;;;945042;27;19899;-78
2022/12/20 10:59:59;;;;;;;;;;;;;;;;;;945024;27;19908;-77
2022/12/20 11:00:33;;;;;;;;;;;;;;;;;;944986;27;19899;-78
2022/12/20 11:01:08;;;;;;;;;;;;;;;;;;944772;27;19907;-78
2022/12/20 11:02:29;;;;;;;;;;;;;;;;;;945042;27;19899;-79
2022/12/20 11:03:06;;;;;;;;;;;;;;;;;;944443;27;19899;-77
2022/12/20 11:03:51;;;;;;;;;;;;;;;;;;944635;27;19899;-78
2022/12/20 11:04:25;;;;;;;;;;;;;;;;;;944991;27;19915;-79
2022/12/20 11:04:57;;;;;;;;;;;;;;;;;;945017;27;19906;-78
2022/12/20 11:05:30;;;;;;;;;;;;;;;;;;945000;27;20312;-78
2022/12/20 11:06:03;;;;;;;;;;;;;;;;;;944824;27;19910;-78
2022/12/20 11:07:24;;;;;;;;;;;;;;;;;;944739;27;20362;-81
2022/12/20 11:07:56;;;;;;;;;;;;;;;;;;944952;27;19899;-79
2022/12/20 11:08:31;;;;;;;;;;;;;;;;;;944583;27;19914;-78
2022/12/20 11:09:16;;;;;;;;;;;;;;;;;;944650;27;20299;-77
2022/12/20 11:09:54;;;;;;;;;;;;;;;;;;944733;27;20263;-77
2022/12/20 11:10:25;;;;;;;;;;;;;;;;;;944595;27;19907;-78
2022/12/20 11:11:10;;;;;;;;;;;;;;;;;;944840;27;19907;-79
2022/12/20 11:11:58;;;;;;;;;;;;;;;;;;944835;27;19920;-78
2022/12/20 11:12:29;;;;;;;;;;;;;;;;;;944527;27;19895;-78
2022/12/20 11:13:03;;;;;;;;;;;;;;;;;;944627;27;20823;-78
2022/12/20 11:13:34;;;;;;;;;;;;;;;;;;944926;27;19899;-77
2022/12/20 11:14:15;;;;;;;;;;;;;;;;;;944864;27;20145;-78
2022/12/20 11:14:46;;;;;;;;;;;;;;;;;;944906;27;19899;-77
2022/12/20 11:15:21;;;;;;;;;;;;;;;;;;944854;27;19895;-80
2022/12/20 11:16:00;;;;;;;;;;;;;;;;;;944589;27;19914;-78
2022/12/20 11:18:07;;;;;;;;;;;;;;;;;;942266;27;19908;-76
2022/12/20 11:18:43;;;;;;;;;;;;;;;;;;944877;27;19899;-78
2022/12/20 11:19:34;;;;;;;;;;;;;;;;;;944995;27;19907;-78
2022/12/20 11:20:16;;;;;;;;;;;;;;;;;;944476;27;19896;-77
2022/12/20 11:20:54;;;;;;;;;;;;;;;;;;944675;27;19923;-78
2022/12/20 11:21:30;;;;;;;;;;;;;;;;;;944702;27;19908;-77
2022/12/20 11:22:08;;;;;;;;;;;;;;;;;;944666;27;20536;-77
2022/12/20 11:22:47;;;;;;;;;;;;;;;;;;944665;27;20316;-77
2022/12/20 11:23:27;;;;;;;;;;;;;;;;;;944952;27;19906;-77
2022/12/20 11:24:01;;;;;;;;;;;;;;;;;;944841;27;19899;-77
2022/12/20 11:25:22;;;;;;;;;;;;;;;;;;944504;27;19937;-79
2022/12/20 11:26:01;;;;;;;;;;;;;;;;;;944850;27;19974;-78
2022/12/20 11:27:43;;;;;;;;;;;;;;;;;;944941;27;20325;-77
2022/12/20 11:28:20;;;;;;;;;;;;;;;;;;944847;27;19907;-78
2022/12/20 11:29:01;;;;;;;;;;;;;;;;;;944755;27;20328;-78
2022/12/20 11:29:40;;;;;;;;;;;;;;;;;;944500;27;19899;-77
2022/12/20 11:30:17;;;;;;;;;;;;;;;;;;944594;27;19907;-77
2022/12/20 11:31:34;;;;;;;;;;;;;;;;;;944932;27;19932;-78
2022/12/20 11:32:10;;;;;;;;;;;;;;;;;;944571;27;19907;-79
2022/12/20 11:33:01;;;;;;;;;;;;;;;;;;944657;27;19899;-75
2022/12/20 11:33:44;;;;;;;;;;;;;;;;;;944676;27;19923;-77
2022/12/20 11:34:19;;;;;;;;;;;;;;;;;;944863;27;20270;-80
2022/12/20 11:35:00;;;;;;;;;;;;;;;;;;944776;27;19907;-77
2022/12/20 11:37:47;;;;;;;;;;;;;;;;;;944809;27;19906;-79
2022/12/20 11:38:24;;;;;;;;;;;;;;;;;;944807;27;20325;-81
2022/12/20 11:39:01;;;;;;;;;;;;;;;;;;944801;27;19896;-77
2022/12/20 11:40:08;;;;;;;;;;;;;;;;;;943151;27;19899;-77
2022/12/20 11:40:41;;;;;;;;;;;;;;;;;;944845;27;19900;-78
2022/12/20 11:41:21;;;;;;;;;;;;;;;;;;944902;27;19907;-77
2022/12/20 11:41:57;;;;;;;;;;;;;;;;;;944954;27;19899;-77
2022/12/20 11:42:37;;;;;;;;;;;;;;;;;;944757;27;19899;-77
2022/12/20 11:43:24;;;;;;;;;;;;;;;;;;944841;27;19896;-76
2022/12/20 11:44:04;;;;;;;;;;;;;;;;;;944892;27;19900;-77
2022/12/20 11:45:45;;;;;;;;;;;;;;;;;;944583;27;20419;-79
2022/12/20 11:46:25;;;;;;;;;;;;;;;;;;943960;27;19913;-78
2022/12/20 11:47:12;;;;;;;;;;;;;;;;;;944575;27;20439;-79
2022/12/20 11:48:00;;;;;;;;;;;;;;;;;;944888;27;20200;-80
2022/12/20 11:48:43;;;;;;;;;;;;;;;;;;944739;27;19906;-79
2022/12/20 11:49:38;;;;;;;;;;;;;;;;;;944877;27;20192;-78
2022/12/20 11:50:21;;;;;;;;;;;;;;;;;;944472;27;19907;-78
2022/12/20 11:50:58;;;;;;;;;;;;;;;;;;944864;27;19903;-81
2022/12/20 11:51:36;;;;;;;;;;;;;;;;;;944495;27;19896;-81
2022/12/20 11:52:13;;;;;;;;;;;;;;;;;;944876;27;19899;-78
2022/12/20 11:52:49;;;;;;;;;;;;;;;;;;944824;27;19913;-79
2022/12/20 11:53:24;;;;;;;;;;;;;;;;;;944806;27;19967;-77
2022/12/20 11:54:02;;;;;;;;;;;;;;;;;;944840;27;19908;-78
2022/12/20 11:54:36;;;;;;;;;;;;;;;;;;944833;27;19900;-77
2022/12/20 11:55:20;;;;;;;;;;;;;;;;;;944783;27;19936;-77
2022/12/20 11:55:53;;;;;;;;;;;;;;;;;;944834;27;20274;-80
2022/12/20 11:56:28;;;;;;;;;;;;;;;;;;944704;27;19899;-77
2022/12/20 11:57:02;;;;;;;;;;;;;;;;;;944793;27;20217;-79
2022/12/20 11:57:39;;;;;;;;;;;;;;;;;;944520;27;20406;-81
2022/12/20 11:58:13;;;;;;;;;;;;;;;;;;944426;27;19903;-78
2022/12/20 11:58:47;;;;;;;;;;;;;;;;;;944539;27;19911;-79
2022/12/20 11:59:24;;;;;;;;;;;;;;;;;;944356;27;20584;-78
2022/12/20 11:59:56;;;;;;;;;;;;;;;;;;944460;27;20449;-80
2022/12/20 12:00:30;;;;;;;;;;;;;;;;;;944407;27;20318;-79
2022/12/20 12:01:05;;;;;;;;;;;;;;;;;;944320;27;19899;-76
2022/12/20 12:02:16;;;;;;;;;;;;;;;;;;944858;27;19900;-76
2022/12/20 12:02:50;;;;;;;;;;;;;;;;;;944737;27;19896;-77
2022/12/20 12:03:26;;;;;;;;;;;;;;;;;;944445;27;20317;-79
2022/12/20 12:04:10;;;;;;;;;;;;;;;;;;944277;27;19931;-76
2022/12/20 12:04:43;;;;;;;;;;;;;;;;;;944478;27;19900;-77
2022/12/20 12:05:20;;;;;;;;;;;;;;;;;;944405;27;19916;-77
2022/12/20 12:06:28;;;;;;;;;;;;;;;;;;944891;27;19895;-80
2022/12/20 12:07:02;;;;;;;;;;;;;;;;;;944847;27;19899;-78
2022/12/20 12:07:36;;;;;;;;;;;;;;;;;;944821;27;20297;-79
2022/12/20 12:08:12;;;;;;;;;;;;;;;;;;944753;27;19915;-80
2022/12/20 12:09:37;;;;;;;;;;;;;;;;;;944805;27;19902;-79
2022/12/20 12:10:13;;;;;;;;;;;;;;;;;;944749;27;19895;-79
2022/12/20 12:10:48;;;;;;;;;;;;;;;;;;944790;27;20555;-78
2022/12/20 12:11:23;;;;;;;;;;;;;;;;;;944780;27;19908;-79
2022/12/20 12:11:57;;;;;;;;;;;;;;;;;;944851;27;19899;-80
2022/12/20 12:12:34;;;;;;;;;;;;;;;;;;944821;27;19900;-77
2022/12/20 12:13:10;;;;;;;;;;;;;;;;;;944420;27;19963;-76
2022/12/20 12:13:41;;;;;;;;;;;;;;;;;;944555;27;19900;-80
2022/12/20 12:14:18;;;;;;;;;;;;;;;;;;944379;27;19900;-80
2022/12/20 12:15:30;;;;;;;;;;;;;;;;;;944820;27;20264;-79
2022/12/20 12:16:05;;;;;;;;;;;;;;;;;;944759;27;20257;-81
2022/12/20 12:17:15;;;;;;;;;;;;;;;;;;944895;27;19902;-82
2022/12/20 12:17:51;;;;;;;;;;;;;;;;;;944686;27;19932;-78
2022/12/20 12:18:26;;;;;;;;;;;;;;;;;;944720;27;19906;-76
2022/12/20 12:18:58;;;;;;;;;;;;;;;;;;944784;27;19899;-77
2022/12/20 12:19:30;;;;;;;;;;;;;;;;;;944610;27;19911;-77
2022/12/20 12:20:12;;;;;;;;;;;;;;;;;;944833;27;19915;-76
2022/12/20 12:20:48;;;;;;;;;;;;;;;;;;944805;27;19899;-79
2022/12/20 12:21:24;;;;;;;;;;;;;;;;;;944752;27;19951;-77
2022/12/20 12:22:00;;;;;;;;;;;;;;;;;;944428;27;19896;-78
2022/12/20 12:22:36;;;;;;;;;;;;;;;;;;944552;27;20595;-78
2022/12/20 12:23:11;;;;;;;;;;;;;;;;;;944447;27;19900;-79
2022/12/20 12:23:49;;;;;;;;;;;;;;;;;;944338;27;19907;-77
2022/12/20 12:24:23;;;;;;;;;;;;;;;;;;944533;27;19902;-77
2022/12/20 12:24:59;;;;;;;;;;;;;;;;;;944733;27;19923;-78
2022/12/20 12:26:08;;;;;;;;;;;;;;;;;;944749;27;20378;-78
2022/12/20 12:27:19;;;;;;;;;;;;;;;;;;944843;27;20270;-80
2022/12/20 12:27:49;;;;;;;;;;;;;;;;;;944763;27;19895;-81
2022/12/20 12:28:24;;;;;;;;;;;;;;;;;;944757;27;19900;-77
2022/12/20 12:28:56;;;;;;;;;;;;;;;;;;944810;27;20260;-81
2022/12/20 12:30:38;;;;;;;;;;;;;;;;;;944775;27;19907;-80
2022/12/20 12:31:13;;;;;;;;;;;;;;;;;;944485;27;19975;-77
2022/12/20 12:32:24;;;;;;;;;;;;;;;;;;944764;27;19899;-79
2022/12/20 12:33:01;;;;;;;;;;;;;;;;;;944653;27;19899;-78
2022/12/20 12:33:37;;;;;;;;;;;;;;;;;;944777;27;19900;-79
2022/12/20 12:34:14;;;;;;;;;;;;;;;;;;944407;27;19899;-79
2022/12/20 12:35:40;;;;;;;;;;;;;;;;;;944044;27;19918;-76
2022/12/20 12:36:20;;;;;;;;;;;;;;;;;;944682;27;19902;-77
2022/12/20 12:37:41;;;;;;;;;;;;;;;;;;944790;27;19907;-76
2022/12/20 12:38:23;;;;;;;;;;;;;;;;;;944613;27;19918;-78
2022/12/20 12:39:04;;;;;;;;;;;;;;;;;;944450;27;20965;-78
2022/12/20 12:39:43;;;;;;;;;;;;;;;;;;944669;27;19911;-79
2022/12/20 12:40:38;;;;;;;;;;;;;;;;;;944658;27;19915;-77
2022/12/20 12:41:33;;;;;;;;;;;;;;;;;;944689;27;19907;-77
2022/12/20 12:42:14;;;;;;;;;;;;;;;;;;944743;27;19940;-80
2022/12/20 12:43:05;;;;;;;;;;;;;;;;;;944440;27;19899;-79
2022/12/20 12:43:46;;;;;;;;;;;;;;;;;;944798;27;19900;-79
2022/12/20 12:44:30;;;;;;;;;;;;;;;;;;944614;27;19895;-77
2022/12/20 12:45:05;;;;;;;;;;;;;;;;;;944692;27;19899;-77
2022/12/20 12:46:11;;;;;;;;;;;;;;;;;;944550;27;20425;-78
2022/12/20 12:46:45;;;;;;;;;;;;;;;;;;944432;27;19954;-77
2022/12/20 12:47:18;;;;;;;;;;;;;;;;;;944408;27;19895;-78
2022/12/20 12:48:29;;;;;;;;;;;;;;;;;;944764;27;19907;-81
2022/12/20 12:49:02;;;;;;;;;;;;;;;;;;944387;27;19900;-77
2022/12/20 12:50:16;;;;;;;;;;;;;;;;;;944752;27;19899;-77
2022/12/20 12:50:48;;;;;;;;;;;;;;;;;;944785;27;19958;-79
2022/12/20 12:51:25;;;;;;;;;;;;;;;;;;944704;27;19907;-77
2022/12/20 12:51:58;;;;;;;;;;;;;;;;;;944757;27;19906;-76
2022/12/20 12:52:39;;;;;;;;;;;;;;;;;;944396;27;19907;-76
2022/12/20 12:53:16;;;;;;;;;;;;;;;;;;944494;27;19904;-79
2022/12/20 12:53:48;;;;;;;;;;;;;;;;;;944400;27;19927;-77
2022/12/20 12:54:21;;;;;;;;;;;;;;;;;;944553;27;20453;-80
2022/12/20 12:54:54;;;;;;;;;;;;;;;;;;944329;27;19935;-75
2022/12/20 12:55:36;;;;;;;;;;;;;;;;;;944575;27;19960;-77
2022/12/20 12:56:24;;;;;;;;;;;;;;;;;;944658;27;19896;-77
2022/12/20 12:57:00;;;;;;;;;;;;;;;;;;944380;27;19907;-78
2022/12/20 12:57:53;;;;;;;;;;;;;;;;;;944594;27;19966;-77
2022/12/20 12:58:29;;;;;;;;;;;;;;;;;;944598;27;19935;-79
2022/12/20 12:59:21;;;;;;;;;;;;;;;;;;944297;27;19938;-77
2022/12/20 12:59:52;;;;;;;;;;;;;;;;;;944706;27;19915;-79
2022/12/20 13:00:40;;;;;;;;;;;;;;;;;;944303;27;19907;-78
2022/12/20 13:01:11;;;;;;;;;;;;;;;;;;944637;27;19900;-77
2022/12/20 13:02:53;;;;;;;;;;;;;;;;;;944801;27;19895;-80
2022/12/20 13:03:39;;;;;;;;;;;;;;;;;;944070;27;19972;-75
2022/12/20 13:04:21;;;;;;;;;;;;;;;;;;944280;27;19899;-76
2022/12/20 13:04:56;;;;;;;;;;;;;;;;;;944481;27;19908;-75
2022/12/20 13:06:59;;;;;;;;;;;;;;;;;;943860;27;20466;-76
2022/12/20 13:07:42;;;;;;;;;;;;;;;;;;943858;27;19907;-76
2022/12/20 13:08:18;;;;;;;;;;;;;;;;;;943825;27;19911;-76
2022/12/20 13:09:08;;;;;;;;;;;;;;;;;;941683;27;19912;-76
2022/12/20 13:09:44;;;;;;;;;;;;;;;;;;943154;27;19907;-76
2022/12/20 13:10:30;;;;;;;;;;;;;;;;;;942649;27;19944;-76
2022/12/20 13:11:04;;;;;;;;;;;;;;;;;;940937;27;19935;-76
2022/12/20 13:11:38;;;;;;;;;;;;;;;;;;941020;27;19934;-76
2022/12/20 13:12:23;;;;;;;;;;;;;;;;;;941384;27;19917;-76
2022/12/20 13:13:00;;;;;;;;;;;;;;;;;;943416;27;19971;-76
2022/12/20 13:13:31;;;;;;;;;;;;;;;;;;941017;27;19920;-76
2022/12/20 13:14:16;;;;;;;;;;;;;;;;;;941445;27;19926;-76
2022/12/20 13:14:48;;;;;;;;;;;;;;;;;;941479;27;20051;-76
2022/12/20 13:15:37;;;;;;;;;;;;;;;;;;941324;27;19918;-76
2022/12/20 13:16:11;;;;;;;;;;;;;;;;;;943493;27;19919;-75
2022/12/20 13:16:56;;;;;;;;;;;;;;;;;;941540;27;19923;-75
2022/12/20 13:17:45;;;;;;;;;;;;;;;;;;942956;27;19908;-76
2022/12/20 13:18:23;;;;;;;;;;;;;;;;;;943561;27;19916;-76
2022/12/20 13:19:12;;;;;;;;;;;;;;;;;;943223;27;19900;-76
2022/12/20 13:19:53;;;;;;;;;;;;;;;;;;942104;27;19916;-75
2022/12/20 13:20:28;;;;;;;;;;;;;;;;;;944013;27;19907;-76
2022/12/20 13:21:14;;;;;;;;;;;;;;;;;;944016;27;20286;-76
2022/12/20 13:21:48;;;;;;;;;;;;;;;;;;943541;27;20310;-75
2022/12/20 13:22:20;;;;;;;;;;;;;;;;;;943564;27;20136;-76
2022/12/20 13:23:06;;;;;;;;;;;;;;;;;;943615;27;20240;-76